sensor_id;sensor_type;location;lat;lon;timestamp;pressure;altitude;pressure_sealevel;temperature;humidity
50093;BME280;35974;47.752;10.290;2023-03-03T18:44:29;93952.47;;;0.32;100.00
50093;BME280;35974;47.752;10.290;2023-03-03T18:46:56;93995.03;;;0.27;100.00
50093;BME280;35974;47.752;10.290;2023-03-03T18:49:47;94079.81;;;0.67;100.00
50093;BME280;35974;47.752;10.290;2023-03-03T18:52:30;94080.63;;;0.58;100.00
50093;BME280;35974;47.752;10.290;2023-03-03T21:42:17;94172.09;;;-1.96;100.00
50093;BME280;35974;47.752;10.290;2023-03-03T21:44:54;94150.88;;;-1.98;100.00
50093;BME280;35974;47.752;10.290;2023-03-03T21:47:22;94157.75;;;-1.98;100.00
50093;BME280;35974;47.752;10.290;2023-03-03T21:49:50;94157.03;;;-1.89;100.00
50093;BME280;35974;47.752;10.290;2023-03-03T21:52:19;94159.72;;;-1.91;100.00
50093;BME280;35974;47.752;10.290;2023-03-03T21:54:48;94121.19;;;-2.12;100.00
50093;BME280;35974;47.752;10.290;2023-03-03T21:57:15;94152.72;;;-1.89;100.00
50093;BME280;35974;47.752;10.290;2023-03-03T21:59:42;94147.81;;;-1.92;100.00
50093;BME280;35974;47.752;10.290;2023-03-03T22:02:09;94145.72;;;-1.87;100.00
50093;BME280;35974;47.752;10.290;2023-03-03T22:04:35;94168.53;;;-1.72;100.00
50093;BME280;35974;47.752;10.290;2023-03-03T22:07:06;94150.63;;;-1.83;100.00
50093;BME280;35974;47.752;10.290;2023-03-03T22:09:33;94158.06;;;-1.92;100.00
50093;BME280;35974;47.752;10.290;2023-03-03T22:12:00;94166.72;;;-1.93;100.00
50093;BME280;35974;47.752;10.290;2023-03-03T22:14:29;94155.09;;;-2.19;100.00
50093;BME280;35974;47.752;10.290;2023-03-03T22:16:56;94132.06;;;-2.31;100.00
50093;BME280;35974;47.752;10.290;2023-03-03T22:19:22;94141.16;;;-2.38;100.00
50093;BME280;35974;47.752;10.290;2023-03-03T22:21:49;94161.66;;;-2.15;100.00
50093;BME280;35974;47.752;10.290;2023-03-03T22:24:16;94091.13;;;-2.65;100.00
50093;BME280;35974;47.752;10.290;2023-03-03T22:26:42;94151.41;;;-2.38;100.00
50093;BME280;35974;47.752;10.290;2023-03-03T22:29:09;94160.63;;;-2.35;100.00
50093;BME280;35974;47.752;10.290;2023-03-03T22:31:36;94143.25;;;-2.32;100.00
50093;BME280;35974;47.752;10.290;2023-03-03T22:34:02;94156.06;;;-2.32;100.00
50093;BME280;35974;47.752;10.290;2023-03-03T22:36:29;94165.13;;;-2.16;100.00
50093;BME280;35974;47.752;10.290;2023-03-03T22:38:56;94157.22;;;-2.25;100.00
50093;BME280;35974;47.752;10.290;2023-03-03T22:41:22;94145.59;;;-2.40;100.00
50093;BME280;35974;47.752;10.290;2023-03-03T22:43:49;94133.97;;;-2.55;100.00
50093;BME280;35974;47.752;10.290;2023-03-03T22:46:15;94138.75;;;-2.62;100.00
50093;BME280;35974;47.752;10.290;2023-03-03T22:48:42;94158.41;;;-2.40;100.00
50093;BME280;35974;47.752;10.290;2023-03-03T22:51:08;94163.53;;;-2.40;100.00
50093;BME280;35974;47.752;10.290;2023-03-03T22:53:35;94152.97;;;-2.58;100.00
50093;BME280;35974;47.752;10.290;2023-03-03T22:56:01;94156.78;;;-2.64;100.00
50093;BME280;35974;47.752;10.290;2023-03-03T22:58:28;94145.63;;;-2.74;100.00
50093;BME280;35974;47.752;10.290;2023-03-03T23:00:54;94150.75;;;-2.74;100.00
50093;BME280;35974;47.752;10.290;2023-03-03T23:03:21;94129.31;;;-2.84;100.00
50093;BME280;35974;47.752;10.290;2023-03-03T23:05:48;94166.81;;;-2.61;100.00
50093;BME280;35974;47.752;10.290;2023-03-03T23:08:17;94170.66;;;-2.55;100.00
50093;BME280;35974;47.752;10.290;2023-03-03T23:10:44;94167.25;;;-2.44;100.00
50093;BME280;35974;47.752;10.290;2023-03-03T23:13:11;94161.53;;;-2.25;100.00
50093;BME280;35974;47.752;10.290;2023-03-03T23:15:38;94149.78;;;-2.39;100.00
50093;BME280;35974;47.752;10.290;2023-03-03T23:18:04;94150.00;;;-2.42;100.00
50093;BME280;35974;47.752;10.290;2023-03-03T23:20:31;94102.88;;;-2.62;100.00
50093;BME280;35974;47.752;10.290;2023-03-03T23:22:57;94134.88;;;-2.34;100.00
50093;BME280;35974;47.752;10.290;2023-03-03T23:25:24;94160.34;;;-2.10;100.00
50093;BME280;35974;47.752;10.290;2023-03-03T23:27:51;94152.53;;;-2.08;100.00
50093;BME280;35974;47.752;10.290;2023-03-03T23:30:19;94155.56;;;-2.03;100.00
50093;BME280;35974;47.752;10.290;2023-03-03T23:32:46;94159.06;;;-2.04;100.00
50093;BME280;35974;47.752;10.290;2023-03-03T23:35:13;94160.22;;;-2.08;100.00
50093;BME280;35974;47.752;10.290;2023-03-03T23:37:40;94159.06;;;-2.04;100.00
50093;BME280;35974;47.752;10.290;2023-03-03T23:40:07;94168.63;;;-2.06;100.00
50093;BME280;35974;47.752;10.290;2023-03-03T23:42:34;94146.41;;;-2.28;100.00
50093;BME280;35974;47.752;10.290;2023-03-03T23:45:00;94146.75;;;-2.33;100.00
50093;BME280;35974;47.752;10.290;2023-03-03T23:47:27;94161.06;;;-2.19;100.00
50093;BME280;35974;47.752;10.290;2023-03-03T23:49:54;94135.94;;;-2.36;100.00
50093;BME280;35974;47.752;10.290;2023-03-03T23:52:21;94134.38;;;-2.28;100.00
50093;BME280;35974;47.752;10.290;2023-03-03T23:54:47;94153.03;;;-2.14;100.00
50093;BME280;35974;47.752;10.290;2023-03-03T23:57:13;94142.78;;;-2.14;100.00
50093;BME280;35974;47.752;10.290;2023-03-03T23:59:41;94137.66;;;-2.14;100.00
